sensor_id;sensor_type;location;lat;lon;timestamp;P1;durP1;ratioP1;P2;durP2;ratioP2
18298;SDS011;9275;48.690;9.686;2024-03-07T00:01:52;3.30;;;1.57;;
18298;SDS011;9275;48.690;9.686;2024-03-07T00:06:59;5.33;;;1.50;;
18298;SDS011;9275;48.690;9.686;2024-03-07T00:12:06;3.70;;;1.30;;
18298;SDS011;9275;48.690;9.686;2024-03-07T00:17:12;3.80;;;1.40;;
18298;SDS011;9275;48.690;9.686;2024-03-07T00:22:18;2.00;;;1.20;;
18298;SDS011;9275;48.690;9.686;2024-03-07T00:27:22;5.10;;;1.70;;
18298;SDS011;9275;48.690;9.686;2024-03-07T00:32:28;2.50;;;1.30;;
18298;SDS011;9275;48.690;9.686;2024-03-07T00:37:39;4.10;;;1.60;;
18298;SDS011;9275;48.690;9.686;2024-03-07T00:42:44;3.20;;;1.63;;
18298;SDS011;9275;48.690;9.686;2024-03-07T00:47:48;5.47;;;1.73;;
18298;SDS011;9275;48.690;9.686;2024-03-07T00:52:54;2.73;;;1.50;;
18298;SDS011;9275;48.690;9.686;2024-03-07T00:57:59;4.17;;;1.50;;
18298;SDS011;9275;48.690;9.686;2024-03-07T01:03:05;3.30;;;1.57;;
18298;SDS011;9275;48.690;9.686;2024-03-07T01:08:11;3.10;;;1.50;;
18298;SDS011;9275;48.690;9.686;2024-03-07T01:13:16;3.63;;;1.57;;
18298;SDS011;9275;48.690;9.686;2024-03-07T01:18:24;3.03;;;1.30;;
18298;SDS011;9275;48.690;9.686;2024-03-07T01:23:31;3.40;;;1.40;;
18298;SDS011;9275;48.690;9.686;2024-03-07T01:28:36;3.33;;;1.70;;
18298;SDS011;9275;48.690;9.686;2024-03-07T01:33:40;3.13;;;1.40;;
18298;SDS011;9275;48.690;9.686;2024-03-07T01:38:46;3.50;;;1.40;;
18298;SDS011;9275;48.690;9.686;2024-03-07T01:43:51;2.90;;;1.70;;
18298;SDS011;9275;48.690;9.686;2024-03-07T01:48:56;2.67;;;1.40;;
18298;SDS011;9275;48.690;9.686;2024-03-07T01:54:02;2.20;;;1.30;;
18298;SDS011;9275;48.690;9.686;2024-03-07T01:59:08;3.47;;;1.40;;
18298;SDS011;9275;48.690;9.686;2024-03-07T02:04:14;5.80;;;1.93;;
18298;SDS011;9275;48.690;9.686;2024-03-07T02:09:20;2.43;;;1.40;;
18298;SDS011;9275;48.690;9.686;2024-03-07T02:14:25;2.87;;;1.50;;
18298;SDS011;9275;48.690;9.686;2024-03-07T02:19:29;3.07;;;1.60;;
18298;SDS011;9275;48.690;9.686;2024-03-07T02:24:36;3.17;;;1.50;;
18298;SDS011;9275;48.690;9.686;2024-03-07T02:29:41;3.57;;;1.60;;
18298;SDS011;9275;48.690;9.686;2024-03-07T02:34:46;3.00;;;1.53;;
18298;SDS011;9275;48.690;9.686;2024-03-07T02:39:52;2.63;;;1.40;;
18298;SDS011;9275;48.690;9.686;2024-03-07T02:44:57;3.87;;;1.40;;
18298;SDS011;9275;48.690;9.686;2024-03-07T02:50:02;2.87;;;1.33;;
18298;SDS011;9275;48.690;9.686;2024-03-07T02:55:10;5.80;;;1.43;;
18298;SDS011;9275;48.690;9.686;2024-03-07T03:00:15;3.57;;;1.73;;
18298;SDS011;9275;48.690;9.686;2024-03-07T03:05:29;3.27;;;1.30;;
18298;SDS011;9275;48.690;9.686;2024-03-07T03:10:36;3.13;;;1.30;;
18298;SDS011;9275;48.690;9.686;2024-03-07T03:15:40;2.10;;;1.27;;
18298;SDS011;9275;48.690;9.686;2024-03-07T03:20:45;4.20;;;1.37;;
18298;SDS011;9275;48.690;9.686;2024-03-07T03:25:52;2.53;;;1.33;;
18298;SDS011;9275;48.690;9.686;2024-03-07T03:30:57;3.20;;;1.23;;
18298;SDS011;9275;48.690;9.686;2024-03-07T03:36:02;3.33;;;1.40;;
18298;SDS011;9275;48.690;9.686;2024-03-07T03:41:08;2.67;;;1.40;;
18298;SDS011;9275;48.690;9.686;2024-03-07T03:46:13;3.20;;;1.70;;
18298;SDS011;9275;48.690;9.686;2024-03-07T03:51:19;3.90;;;1.50;;
18298;SDS011;9275;48.690;9.686;2024-03-07T03:56:25;3.07;;;1.33;;
18298;SDS011;9275;48.690;9.686;2024-03-07T04:01:30;3.63;;;1.57;;
18298;SDS011;9275;48.690;9.686;2024-03-07T04:06:35;3.47;;;1.50;;
18298;SDS011;9275;48.690;9.686;2024-03-07T04:11:41;2.90;;;1.30;;
18298;SDS011;9275;48.690;9.686;2024-03-07T04:16:48;3.67;;;1.57;;
18298;SDS011;9275;48.690;9.686;2024-03-07T04:21:53;4.07;;;1.40;;
18298;SDS011;9275;48.690;9.686;2024-03-07T04:26:59;2.83;;;1.30;;
18298;SDS011;9275;48.690;9.686;2024-03-07T04:32:06;2.90;;;1.40;;
18298;SDS011;9275;48.690;9.686;2024-03-07T04:37:11;3.47;;;1.50;;
18298;SDS011;9275;48.690;9.686;2024-03-07T04:42:18;2.40;;;1.23;;
18298;SDS011;9275;48.690;9.686;2024-03-07T04:47:22;3.07;;;1.30;;
18298;SDS011;9275;48.690;9.686;2024-03-07T04:52:27;2.57;;;1.47;;
18298;SDS011;9275;48.690;9.686;2024-03-07T04:57:33;2.83;;;1.43;;
18298;SDS011;9275;48.690;9.686;2024-03-07T05:02:38;3.70;;;1.33;;
18298;SDS011;9275;48.690;9.686;2024-03-07T05:07:43;5.53;;;1.50;;
18298;SDS011;9275;48.690;9.686;2024-03-07T05:12:49;2.67;;;1.57;;
18298;SDS011;9275;48.690;9.686;2024-03-07T05:17:54;3.37;;;1.37;;
18298;SDS011;9275;48.690;9.686;2024-03-07T05:23:00;2.10;;;1.27;;
18298;SDS011;9275;48.690;9.686;2024-03-07T05:28:09;3.13;;;1.40;;
18298;SDS011;9275;48.690;9.686;2024-03-07T05:33:14;3.10;;;1.43;;
18298;SDS011;9275;48.690;9.686;2024-03-07T05:38:20;4.10;;;1.53;;
18298;SDS011;9275;48.690;9.686;2024-03-07T05:43:26;3.30;;;1.70;;
18298;SDS011;9275;48.690;9.686;2024-03-07T05:48:31;2.57;;;1.33;;
18298;SDS011;9275;48.690;9.686;2024-03-07T05:53:36;6.57;;;1.33;;
18298;SDS011;9275;48.690;9.686;2024-03-07T05:58:44;3.73;;;1.50;;
18298;SDS011;9275;48.690;9.686;2024-03-07T06:03:49;3.10;;;1.53;;
18298;SDS011;9275;48.690;9.686;2024-03-07T06:08:53;2.40;;;1.30;;
18298;SDS011;9275;48.690;9.686;2024-03-07T06:14:00;6.60;;;1.33;;
18298;SDS011;9275;48.690;9.686;2024-03-07T06:19:06;4.07;;;1.60;;
18298;SDS011;9275;48.690;9.686;2024-03-07T06:24:13;3.37;;;1.33;;
18298;SDS011;9275;48.690;9.686;2024-03-07T06:29:19;4.07;;;1.40;;
18298;SDS011;9275;48.690;9.686;2024-03-07T06:34:24;2.33;;;1.30;;
18298;SDS011;9275;48.690;9.686;2024-03-07T06:39:31;9.77;;;2.03;;
18298;SDS011;9275;48.690;9.686;2024-03-07T06:44:38;8.50;;;1.80;;
18298;SDS011;9275;48.690;9.686;2024-03-07T06:49:44;7.73;;;1.70;;
18298;SDS011;9275;48.690;9.686;2024-03-07T06:54:49;4.60;;;1.60;;
18298;SDS011;9275;48.690;9.686;2024-03-07T06:59:56;3.83;;;1.47;;
18298;SDS011;9275;48.690;9.686;2024-03-07T07:05:01;3.83;;;1.70;;
18298;SDS011;9275;48.690;9.686;2024-03-07T07:10:11;3.33;;;1.50;;
18298;SDS011;9275;48.690;9.686;2024-03-07T07:15:20;2.47;;;1.30;;
18298;SDS011;9275;48.690;9.686;2024-03-07T07:20:24;2.47;;;1.30;;
18298;SDS011;9275;48.690;9.686;2024-03-07T07:25:29;5.47;;;1.70;;
18298;SDS011;9275;48.690;9.686;2024-03-07T07:30:36;3.97;;;1.33;;
18298;SDS011;9275;48.690;9.686;2024-03-07T07:35:44;4.37;;;1.70;;
18298;SDS011;9275;48.690;9.686;2024-03-07T07:40:49;3.57;;;1.63;;
18298;SDS011;9275;48.690;9.686;2024-03-07T07:45:55;3.83;;;1.60;;
18298;SDS011;9275;48.690;9.686;2024-03-07T07:51:00;4.00;;;1.70;;
18298;SDS011;9275;48.690;9.686;2024-03-07T07:56:08;2.87;;;1.57;;
18298;SDS011;9275;48.690;9.686;2024-03-07T08:01:14;3.93;;;2.00;;
18298;SDS011;9275;48.690;9.686;2024-03-07T08:06:19;4.37;;;2.10;;
18298;SDS011;9275;48.690;9.686;2024-03-07T08:11:24;2.80;;;1.40;;
18298;SDS011;9275;48.690;9.686;2024-03-07T08:16:30;4.30;;;2.10;;
18298;SDS011;9275;48.690;9.686;2024-03-07T08:21:35;5.73;;;1.90;;
18298;SDS011;9275;48.690;9.686;2024-03-07T08:26:39;4.47;;;2.03;;
18298;SDS011;9275;48.690;9.686;2024-03-07T08:31:48;5.30;;;2.23;;
18298;SDS011;9275;48.690;9.686;2024-03-07T08:36:53;4.83;;;1.90;;
18298;SDS011;9275;48.690;9.686;2024-03-07T08:41:57;3.00;;;1.53;;
18298;SDS011;9275;48.690;9.686;2024-03-07T08:47:03;4.03;;;1.70;;
18298;SDS011;9275;48.690;9.686;2024-03-07T08:52:08;3.27;;;1.80;;
18298;SDS011;9275;48.690;9.686;2024-03-07T08:57:13;5.43;;;1.73;;
18298;SDS011;9275;48.690;9.686;2024-03-07T09:02:20;6.40;;;2.00;;
18298;SDS011;9275;48.690;9.686;2024-03-07T09:07:25;5.03;;;2.03;;
18298;SDS011;9275;48.690;9.686;2024-03-07T09:12:31;9.70;;;2.10;;
18298;SDS011;9275;48.690;9.686;2024-03-07T09:17:38;11.90;;;2.20;;
18298;SDS011;9275;48.690;9.686;2024-03-07T09:22:43;14.43;;;2.27;;
18298;SDS011;9275;48.690;9.686;2024-03-07T09:27:49;4.47;;;1.90;;
18298;SDS011;9275;48.690;9.686;2024-03-07T09:32:56;4.10;;;2.10;;
18298;SDS011;9275;48.690;9.686;2024-03-07T09:38:00;5.63;;;2.00;;
18298;SDS011;9275;48.690;9.686;2024-03-07T09:43:05;3.80;;;2.00;;
18298;SDS011;9275;48.690;9.686;2024-03-07T09:48:15;6.00;;;2.30;;
18298;SDS011;9275;48.690;9.686;2024-03-07T09:53:20;5.77;;;2.10;;
18298;SDS011;9275;48.690;9.686;2024-03-07T09:58:27;3.80;;;1.87;;
18298;SDS011;9275;48.690;9.686;2024-03-07T10:03:39;3.93;;;1.50;;
18298;SDS011;9275;48.690;9.686;2024-03-07T10:08:47;3.43;;;1.80;;
18298;SDS011;9275;48.690;9.686;2024-03-07T10:13:53;10.93;;;1.70;;
18298;SDS011;9275;48.690;9.686;2024-03-07T10:18:59;3.53;;;1.60;;
18298;SDS011;9275;48.690;9.686;2024-03-07T10:24:08;2.60;;;1.50;;
18298;SDS011;9275;48.690;9.686;2024-03-07T10:29:14;4.20;;;1.87;;
18298;SDS011;9275;48.690;9.686;2024-03-07T10:34:20;4.77;;;1.90;;
18298;SDS011;9275;48.690;9.686;2024-03-07T10:39:27;2.93;;;1.50;;
18298;SDS011;9275;48.690;9.686;2024-03-07T10:44:34;4.23;;;1.70;;
18298;SDS011;9275;48.690;9.686;2024-03-07T10:49:48;3.10;;;1.43;;
18298;SDS011;9275;48.690;9.686;2024-03-07T10:55:06;3.20;;;1.40;;
18298;SDS011;9275;48.690;9.686;2024-03-07T11:00:19;2.10;;;1.40;;
18298;SDS011;9275;48.690;9.686;2024-03-07T11:05:34;3.80;;;1.70;;
18298;SDS011;9275;48.690;9.686;2024-03-07T11:10:39;4.50;;;1.40;;
18298;SDS011;9275;48.690;9.686;2024-03-07T11:15:45;2.83;;;1.40;;
18298;SDS011;9275;48.690;9.686;2024-03-07T11:20:53;2.20;;;1.30;;
18298;SDS011;9275;48.690;9.686;2024-03-07T11:26:03;2.67;;;1.37;;
18298;SDS011;9275;48.690;9.686;2024-03-07T11:31:12;2.97;;;1.47;;
18298;SDS011;9275;48.690;9.686;2024-03-07T11:36:41;2.67;;;1.40;;
18298;SDS011;9275;48.690;9.686;2024-03-07T11:41:46;3.33;;;1.40;;
18298;SDS011;9275;48.690;9.686;2024-03-07T11:46:51;4.73;;;1.60;;
18298;SDS011;9275;48.690;9.686;2024-03-07T11:51:57;2.80;;;1.70;;
18298;SDS011;9275;48.690;9.686;2024-03-07T11:57:01;2.57;;;1.50;;
18298;SDS011;9275;48.690;9.686;2024-03-07T12:02:06;2.73;;;1.40;;
18298;SDS011;9275;48.690;9.686;2024-03-07T12:07:13;3.93;;;1.53;;
18298;SDS011;9275;48.690;9.686;2024-03-07T12:12:20;1.90;;;1.40;;
18298;SDS011;9275;48.690;9.686;2024-03-07T12:17:27;4.27;;;1.50;;
18298;SDS011;9275;48.690;9.686;2024-03-07T12:22:35;3.30;;;1.70;;
18298;SDS011;9275;48.690;9.686;2024-03-07T12:27:41;2.10;;;1.40;;
18298;SDS011;9275;48.690;9.686;2024-03-07T12:32:49;2.47;;;1.50;;
18298;SDS011;9275;48.690;9.686;2024-03-07T12:37:55;2.80;;;1.50;;
18298;SDS011;9275;48.690;9.686;2024-03-07T12:43:00;2.77;;;1.50;;
18298;SDS011;9275;48.690;9.686;2024-03-07T12:48:06;3.63;;;1.67;;
18298;SDS011;9275;48.690;9.686;2024-03-07T12:53:18;3.13;;;1.70;;
18298;SDS011;9275;48.690;9.686;2024-03-07T12:58:22;2.63;;;1.60;;
18298;SDS011;9275;48.690;9.686;2024-03-07T13:03:28;3.90;;;1.43;;
18298;SDS011;9275;48.690;9.686;2024-03-07T13:08:35;1.90;;;1.60;;
18298;SDS011;9275;48.690;9.686;2024-03-07T13:13:39;2.60;;;1.50;;
18298;SDS011;9275;48.690;9.686;2024-03-07T13:18:44;3.53;;;1.70;;
18298;SDS011;9275;48.690;9.686;2024-03-07T13:23:50;2.90;;;1.40;;
18298;SDS011;9275;48.690;9.686;2024-03-07T13:28:55;2.77;;;1.67;;
18298;SDS011;9275;48.690;9.686;2024-03-07T13:34:02;3.67;;;1.60;;
18298;SDS011;9275;48.690;9.686;2024-03-07T13:39:08;13.10;;;2.63;;
18298;SDS011;9275;48.690;9.686;2024-03-07T13:44:14;2.63;;;1.50;;
18298;SDS011;9275;48.690;9.686;2024-03-07T13:49:20;3.53;;;1.70;;
18298;SDS011;9275;48.690;9.686;2024-03-07T13:54:27;4.63;;;1.70;;
18298;SDS011;9275;48.690;9.686;2024-03-07T13:59:44;4.00;;;1.87;;
18298;SDS011;9275;48.690;9.686;2024-03-07T14:11:13;6.20;;;1.70;;
18298;SDS011;9275;48.690;9.686;2024-03-07T14:17:14;3.80;;;1.63;;
18298;SDS011;9275;48.690;9.686;2024-03-07T14:22:54;3.50;;;2.00;;
18298;SDS011;9275;48.690;9.686;2024-03-07T14:28:14;2.17;;;1.53;;
18298;SDS011;9275;48.690;9.686;2024-03-07T14:33:31;2.10;;;1.50;;
18298;SDS011;9275;48.690;9.686;2024-03-07T14:38:44;3.30;;;1.50;;
18298;SDS011;9275;48.690;9.686;2024-03-07T14:43:54;4.10;;;1.90;;
18298;SDS011;9275;48.690;9.686;2024-03-07T14:48:58;4.23;;;1.70;;
18298;SDS011;9275;48.690;9.686;2024-03-07T14:54:03;3.50;;;1.50;;
18298;SDS011;9275;48.690;9.686;2024-03-07T14:59:09;3.70;;;1.60;;
18298;SDS011;9275;48.690;9.686;2024-03-07T15:04:15;2.87;;;1.70;;
18298;SDS011;9275;48.690;9.686;2024-03-07T15:09:20;4.30;;;1.77;;
18298;SDS011;9275;48.690;9.686;2024-03-07T15:14:26;4.20;;;1.80;;
18298;SDS011;9275;48.690;9.686;2024-03-07T15:19:41;4.27;;;1.43;;
18298;SDS011;9275;48.690;9.686;2024-03-07T15:24:45;2.57;;;1.43;;
18298;SDS011;9275;48.690;9.686;2024-03-07T15:29:52;3.70;;;1.50;;
18298;SDS011;9275;48.690;9.686;2024-03-07T15:34:59;8.23;;;1.83;;
18298;SDS011;9275;48.690;9.686;2024-03-07T15:40:04;3.07;;;1.43;;
18298;SDS011;9275;48.690;9.686;2024-03-07T15:45:17;1.40;;;1.30;;
18298;SDS011;9275;48.690;9.686;2024-03-07T15:50:24;2.30;;;1.57;;
18298;SDS011;9275;48.690;9.686;2024-03-07T15:55:31;2.40;;;1.50;;
18298;SDS011;9275;48.690;9.686;2024-03-07T16:00:39;4.47;;;1.57;;
18298;SDS011;9275;48.690;9.686;2024-03-07T16:05:43;2.90;;;1.50;;
18298;SDS011;9275;48.690;9.686;2024-03-07T16:10:50;6.33;;;1.60;;
18298;SDS011;9275;48.690;9.686;2024-03-07T16:15:57;2.47;;;1.50;;
18298;SDS011;9275;48.690;9.686;2024-03-07T16:21:02;3.00;;;1.50;;
18298;SDS011;9275;48.690;9.686;2024-03-07T16:26:21;3.77;;;1.60;;
18298;SDS011;9275;48.690;9.686;2024-03-07T16:31:28;2.10;;;1.43;;
18298;SDS011;9275;48.690;9.686;2024-03-07T16:36:33;2.63;;;1.70;;
18298;SDS011;9275;48.690;9.686;2024-03-07T16:41:38;3.07;;;1.37;;
18298;SDS011;9275;48.690;9.686;2024-03-07T16:46:44;3.00;;;1.60;;
18298;SDS011;9275;48.690;9.686;2024-03-07T16:51:49;2.30;;;1.50;;
18298;SDS011;9275;48.690;9.686;2024-03-07T16:56:53;2.17;;;1.70;;
18298;SDS011;9275;48.690;9.686;2024-03-07T17:01:59;3.83;;;1.60;;
18298;SDS011;9275;48.690;9.686;2024-03-07T17:07:04;3.00;;;1.40;;
18298;SDS011;9275;48.690;9.686;2024-03-07T17:12:08;3.33;;;1.60;;
18298;SDS011;9275;48.690;9.686;2024-03-07T17:17:15;4.10;;;1.63;;
18298;SDS011;9275;48.690;9.686;2024-03-07T17:22:20;3.43;;;1.70;;
18298;SDS011;9275;48.690;9.686;2024-03-07T17:27:25;2.97;;;1.40;;
18298;SDS011;9275;48.690;9.686;2024-03-07T17:32:31;2.90;;;1.70;;
18298;SDS011;9275;48.690;9.686;2024-03-07T17:37:37;2.10;;;1.40;;
18298;SDS011;9275;48.690;9.686;2024-03-07T17:42:42;1.90;;;1.37;;
18298;SDS011;9275;48.690;9.686;2024-03-07T17:47:50;2.37;;;1.37;;
18298;SDS011;9275;48.690;9.686;2024-03-07T17:52:57;3.23;;;1.60;;
18298;SDS011;9275;48.690;9.686;2024-03-07T17:58:03;2.83;;;1.60;;
18298;SDS011;9275;48.690;9.686;2024-03-07T18:03:12;6.40;;;1.87;;
18298;SDS011;9275;48.690;9.686;2024-03-07T18:08:19;3.70;;;1.73;;
18298;SDS011;9275;48.690;9.686;2024-03-07T18:13:43;3.47;;;2.07;;
18298;SDS011;9275;48.690;9.686;2024-03-07T18:18:50;3.93;;;1.93;;
18298;SDS011;9275;48.690;9.686;2024-03-07T18:23:56;2.47;;;1.57;;
18298;SDS011;9275;48.690;9.686;2024-03-07T18:29:01;3.90;;;1.70;;
18298;SDS011;9275;48.690;9.686;2024-03-07T18:34:08;3.53;;;1.60;;
18298;SDS011;9275;48.690;9.686;2024-03-07T18:39:12;4.20;;;1.90;;
18298;SDS011;9275;48.690;9.686;2024-03-07T18:44:26;3.23;;;1.80;;
18298;SDS011;9275;48.690;9.686;2024-03-07T18:49:37;3.20;;;1.77;;
18298;SDS011;9275;48.690;9.686;2024-03-07T18:54:42;5.03;;;2.00;;
18298;SDS011;9275;48.690;9.686;2024-03-07T18:59:46;3.60;;;1.97;;
18298;SDS011;9275;48.690;9.686;2024-03-07T19:04:52;3.63;;;1.87;;
18298;SDS011;9275;48.690;9.686;2024-03-07T19:09:57;3.97;;;2.00;;
18298;SDS011;9275;48.690;9.686;2024-03-07T19:15:02;5.73;;;2.07;;
18298;SDS011;9275;48.690;9.686;2024-03-07T19:20:09;2.67;;;1.63;;
18298;SDS011;9275;48.690;9.686;2024-03-07T19:25:20;4.77;;;1.80;;
18298;SDS011;9275;48.690;9.686;2024-03-07T19:30:28;4.50;;;2.10;;
18298;SDS011;9275;48.690;9.686;2024-03-07T19:35:38;4.73;;;2.03;;
18298;SDS011;9275;48.690;9.686;2024-03-07T19:40:44;2.80;;;1.77;;
18298;SDS011;9275;48.690;9.686;2024-03-07T19:45:50;6.73;;;2.40;;
18298;SDS011;9275;48.690;9.686;2024-03-07T19:50:59;7.23;;;2.30;;
18298;SDS011;9275;48.690;9.686;2024-03-07T19:56:08;3.20;;;2.00;;
18298;SDS011;9275;48.690;9.686;2024-03-07T20:01:15;5.27;;;2.03;;
18298;SDS011;9275;48.690;9.686;2024-03-07T20:06:21;6.37;;;2.23;;
18298;SDS011;9275;48.690;9.686;2024-03-07T20:11:25;6.67;;;2.30;;
18298;SDS011;9275;48.690;9.686;2024-03-07T20:16:39;3.37;;;1.90;;
18298;SDS011;9275;48.690;9.686;2024-03-07T20:27:22;6.77;;;2.00;;
18298;SDS011;9275;48.690;9.686;2024-03-07T20:32:26;5.43;;;2.13;;
18298;SDS011;9275;48.690;9.686;2024-03-07T20:37:31;3.67;;;1.90;;
18298;SDS011;9275;48.690;9.686;2024-03-07T20:42:38;4.40;;;2.40;;
18298;SDS011;9275;48.690;9.686;2024-03-07T20:47:44;4.23;;;2.40;;
18298;SDS011;9275;48.690;9.686;2024-03-07T20:52:50;4.07;;;2.27;;
18298;SDS011;9275;48.690;9.686;2024-03-07T20:57:57;3.33;;;1.97;;
18298;SDS011;9275;48.690;9.686;2024-03-07T21:03:03;4.70;;;2.10;;
18298;SDS011;9275;48.690;9.686;2024-03-07T21:08:09;3.33;;;1.90;;
18298;SDS011;9275;48.690;9.686;2024-03-07T21:13:15;3.20;;;1.70;;
18298;SDS011;9275;48.690;9.686;2024-03-07T21:18:23;5.60;;;2.47;;
18298;SDS011;9275;48.690;9.686;2024-03-07T21:23:28;4.67;;;2.20;;
18298;SDS011;9275;48.690;9.686;2024-03-07T21:28:36;5.67;;;2.20;;
18298;SDS011;9275;48.690;9.686;2024-03-07T21:33:41;4.13;;;2.10;;
18298;SDS011;9275;48.690;9.686;2024-03-07T21:38:45;4.03;;;2.23;;
18298;SDS011;9275;48.690;9.686;2024-03-07T21:43:51;4.33;;;2.10;;
18298;SDS011;9275;48.690;9.686;2024-03-07T21:48:56;4.97;;;2.10;;
18298;SDS011;9275;48.690;9.686;2024-03-07T21:54:03;4.57;;;1.90;;
18298;SDS011;9275;48.690;9.686;2024-03-07T21:59:09;3.67;;;2.07;;
18298;SDS011;9275;48.690;9.686;2024-03-07T22:04:14;3.37;;;1.70;;
18298;SDS011;9275;48.690;9.686;2024-03-07T22:09:18;5.87;;;2.57;;
18298;SDS011;9275;48.690;9.686;2024-03-07T22:14:24;3.23;;;2.03;;
18298;SDS011;9275;48.690;9.686;2024-03-07T22:19:29;4.60;;;2.40;;
18298;SDS011;9275;48.690;9.686;2024-03-07T22:24:34;6.00;;;2.13;;
18298;SDS011;9275;48.690;9.686;2024-03-07T22:29:42;4.27;;;2.03;;
18298;SDS011;9275;48.690;9.686;2024-03-07T22:34:50;3.73;;;2.00;;
18298;SDS011;9275;48.690;9.686;2024-03-07T22:39:56;4.40;;;2.20;;
18298;SDS011;9275;48.690;9.686;2024-03-07T22:45:03;4.17;;;2.10;;
18298;SDS011;9275;48.690;9.686;2024-03-07T22:50:11;6.07;;;2.87;;
18298;SDS011;9275;48.690;9.686;2024-03-07T22:55:31;6.53;;;3.60;;
18298;SDS011;9275;48.690;9.686;2024-03-07T23:00:37;6.93;;;2.73;;
18298;SDS011;9275;48.690;9.686;2024-03-07T23:05:46;4.77;;;2.40;;
18298;SDS011;9275;48.690;9.686;2024-03-07T23:10:51;5.63;;;2.40;;
18298;SDS011;9275;48.690;9.686;2024-03-07T23:15:59;4.83;;;2.20;;
18298;SDS011;9275;48.690;9.686;2024-03-07T23:21:04;3.07;;;1.80;;
18298;SDS011;9275;48.690;9.686;2024-03-07T23:26:09;4.70;;;2.20;;
18298;SDS011;9275;48.690;9.686;2024-03-07T23:31:15;4.17;;;2.10;;
18298;SDS011;9275;48.690;9.686;2024-03-07T23:36:20;4.83;;;2.30;;
18298;SDS011;9275;48.690;9.686;2024-03-07T23:41:25;3.60;;;1.90;;
18298;SDS011;9275;48.690;9.686;2024-03-07T23:46:32;4.07;;;2.20;;
18298;SDS011;9275;48.690;9.686;2024-03-07T23:51:43;5.23;;;2.20;;
18298;SDS011;9275;48.690;9.686;2024-03-07T23:56:49;3.13;;;1.80;;
